Thunder radar more information blitzortung!


Radar de pluja more information rain snow radar


Visita la nostra xarxa de llocs de meteo:

Template documentation
and downloads

And another site



No particular awareness of the weather is required.    There are no Weather-warnings

Pagina Historial Weather Underground text

Diari Resum Juny 20, 2016 Unitats:  Mètric    Imperial   Tant
« Previous Dia
SegĂźent Dia »
Diari Setmana Mensual Anual Personalitzada
  Maxima: Minima: Media:
Temperatura: -17.8 °C -10.6 °C -5.5 °C
Punt de rosada: -17.8 °C -14.2 °C -12.3 °C
Humitat: Humidity % 28 % 47 %
Wind Speed: 0 km/h 0 km/h 10.6 km/h
RĂ fegues de vent: 0 km/h - -
Vent:- - SSW
Pression baro: 0 hPa 34496.6 hPa -
Precipitacions: 0 mm    
Historical Graphs
 
 
Dades de taula per Juny 20, 2016
Temps Temperatura Punt de rosada Pression baro Vent Wind Speed RĂ fegues de vent Humitat Rainfall Rate (Hourly)
-17.8 °C -17.8 °C 0 hPa Calm     Humidity % 0 mm
00:00 -9.9 °C -13.1 °C 34601.5 hPa SW 2.6 km/h 5.1 km/h 69 % 0 mm
00:03 -7.7 °C -12.7 °C 34635.4 hPa Calm   2.3 km/h 56 % 0 mm
00:09 -7.7 °C -12.7 °C 34635.4 hPa Calm   2.3 km/h 56 % 0 mm
00:10 -10.1 °C -13.1 °C 34601.5 hPa SW 2.6 km/h 5.1 km/h 70 % 0 mm
00:14 -7.7 °C -12.7 °C 34635.4 hPa Calm   2.3 km/h 56 % 0 mm
00:20 -10.2 °C -12.9 °C 34601.5 hPa SW 2.6 km/h 5.1 km/h 72 % 0 mm
00:30 -10.2 °C -12.9 °C 34567.7 hPa SW 2.6 km/h 5.1 km/h 73 % 0 mm
00:40 -10.1 °C -12.7 °C 34567.7 hPa SW 2.6 km/h 5.1 km/h 73 % 0 mm
00:50 -10.1 °C -12.7 °C 34601.5 hPa SW 2.6 km/h 5.1 km/h 73 % 0 mm
01:00 -10.1 °C -12.7 °C 34601.5 hPa SW 2.6 km/h 5.1 km/h 73 % 0 mm
01:10 -10.3 °C -13.2 °C 34601.5 hPa SW 2.6 km/h 5.1 km/h 71 % 0 mm
01:20 -10.6 °C -13.1 °C 34601.5 hPa SW 2.6 km/h 5.1 km/h 74 % 0 mm
01:30 -10.6 °C -13.1 °C 34601.5 hPa SW 2.6 km/h 5.1 km/h 74 % 0 mm
01:40 -10.5 °C -13 °C 34601.5 hPa SW 2.6 km/h 5.1 km/h 74 % 0 mm
01:50 -10.4 °C -13.2 °C 34601.5 hPa SW 2.6 km/h 5.1 km/h 72 % 0 mm
02:00 -10.5 °C -13.1 °C 34567.7 hPa SW 2.6 km/h 5.1 km/h 73 % 0 mm
02:10 -10.4 °C -13 °C 34567.7 hPa SW 2.6 km/h 5.1 km/h 73 % 0 mm
02:20 -10 °C -12.7 °C 34601.5 hPa SW 2.6 km/h 5.1 km/h 72 % 0 mm
02:30 -9.8 °C -12.8 °C 34567.7 hPa SW 2.6 km/h 5.1 km/h 70 % 0 mm
02:40 -9.4 °C -12.6 °C 34567.7 hPa SW 2.6 km/h 5.1 km/h 69 % 0 mm
02:50 -9.2 °C -12.7 °C 34601.5 hPa SW 2.6 km/h 5.1 km/h 66 % 0 mm
03:00 -9.1 °C -12.5 °C 34601.5 hPa SW 2.6 km/h 5.1 km/h 67 % 0 mm
03:10 -9.1 °C -12.7 °C 34601.5 hPa SW 2.6 km/h 5.1 km/h 65 % 0 mm
03:20 -9 °C -12.7 °C 34601.5 hPa SW 2.6 km/h 5.1 km/h 65 % 0 mm
03:40 -8.4 °C -12.3 °C 34601.5 hPa SW 2.6 km/h 5.1 km/h 64 % 0 mm
03:50 -8.3 °C -12.3 °C 34601.5 hPa South 5.1 km/h 10.3 km/h 62 % 0 mm
04:00 -7.8 °C -12.1 °C 34601.5 hPa ESE 5.1 km/h 10.3 km/h 61 % 0 mm
04:10 -7.3 °C -11.7 °C 34601.5 hPa Calm   10.3 km/h 60 % 0 mm
04:20 -7.2 °C -11.8 °C 34601.5 hPa Calm   5.1 km/h 58 % 0 mm
04:30 -7.1 °C -11.9 °C 34601.5 hPa NE 5.1 km/h 5.1 km/h 57 % 0 mm
04:40 -7.1 °C -12.1 °C 34601.5 hPa North 2.6 km/h 5.1 km/h 56 % 0 mm
04:50 -6.9 °C -12.1 °C 34601.5 hPa North 7.7 km/h 15.6 km/h 55 % 0 mm
05:00 -6.9 °C -12.3 °C 34601.5 hPa NE 2.6 km/h 7.7 km/h 54 % 0 mm
05:10 -6.4 °C -11.8 °C 34601.5 hPa WSW 2.6 km/h 10.3 km/h 54 % 0 mm
05:20 -6.3 °C -12 °C 34601.5 hPa WSW 2.6 km/h 7.7 km/h 52 % 0 mm
05:30 -5.9 °C -11.8 °C 34601.5 hPa SW 2.6 km/h 5.1 km/h 51 % 0 mm
05:40 -5.7 °C -11.7 °C 34601.5 hPa SW 7.7 km/h 7.7 km/h 50 % 0 mm
10:45 -5.6 °C -11.7 °C 34567.7 hPa WNW 9 km/h 9 km/h 50 % 0 mm
10:50 -5.6 °C -11.9 °C 34567.7 hPa NE 4.2 km/h 6.8 km/h 48 % 0 mm
10:55 -5.3 °C -11.6 °C 34567.7 hPa NE 4.2 km/h 6.8 km/h 49 % 0 mm
11:00 -5.2 °C -11.5 °C 34601.5 hPa NE 4.2 km/h 6.8 km/h 49 % 0 mm
11:05 -5.1 °C -11.6 °C 34601.5 hPa NE 4.2 km/h 6.8 km/h 48 % 0 mm
11:10 -4.8 °C -11.7 °C 34601.5 hPa NE 4.2 km/h 6.8 km/h 46 % 0 mm
11:15 -4.9 °C -11.7 °C 34601.5 hPa ESE 6.8 km/h 6.8 km/h 46 % 0 mm
11:20 -4.6 °C -11.4 °C 34601.5 hPa ESE 6.8 km/h 6.8 km/h 46 % 0 mm
11:25 -4.8 °C -12.1 °C 34601.5 hPa ESE 6.8 km/h 6.8 km/h 44 % 0 mm
11:30 -4.7 °C -12.1 °C 34601.5 hPa ESE 6.8 km/h 6.8 km/h 43 % 0 mm
11:35 -4.7 °C -12.3 °C 34601.5 hPa ESE 6.8 km/h 6.8 km/h 42 % 0 mm
11:40 -4.4 °C -11.8 °C 34601.5 hPa ESE 6.8 km/h 6.8 km/h 43 % 0 mm
11:45 -4.3 °C -11.9 °C 34601.5 hPa ESE 6.8 km/h 6.8 km/h 42 % 0 mm
11:50 -4.5 °C -12.3 °C 34601.5 hPa ESE 6.8 km/h 6.8 km/h 41 % 0 mm
11:55 -4.3 °C -12.1 °C 34601.5 hPa ESE 6.8 km/h 6.8 km/h 41 % 0 mm
12:00 -4.1 °C -12.2 °C 34635.4 hPa ESE 6.8 km/h 6.8 km/h 40 % 0 mm
12:05 -3.9 °C -12 °C 34635.4 hPa ESE 6.8 km/h 6.8 km/h 40 % 0 mm
12:10 -3.9 °C -12 °C 34635.4 hPa ESE 6.8 km/h 6.8 km/h 40 % 0 mm
12:15 -3.6 °C -11.9 °C 34601.5 hPa ESE 6.8 km/h 6.8 km/h 39 % 0 mm
12:20 -3.5 °C -12.1 °C 34601.5 hPa ESE 6.8 km/h 6.8 km/h 38 % 0 mm
12:25 -3.5 °C -12.3 °C 34601.5 hPa ESE 6.8 km/h 6.8 km/h 37 % 0 mm
12:30 -3.5 °C -12.3 °C 34601.5 hPa East 9.8 km/h 9.8 km/h 37 % 0 mm
12:40 -3.6 °C -12.4 °C 34601.5 hPa ESE 6 km/h 6 km/h 37 % 0 mm
12:45 -3.3 °C -12.3 °C 34601.5 hPa SSE 9 km/h 9 km/h 36 % 0 mm
12:50 -2.8 °C -11.9 °C 34601.5 hPa SW 11.9 km/h 11.9 km/h 36 % 0 mm
12:55 -2.7 °C -12.1 °C 34601.5 hPa ESE 15 km/h 15 km/h 35 % 0 mm
13:00 -2.7 °C -12.3 °C 34601.5 hPa South 15 km/h 15 km/h 34 % 0 mm
13:05 -2.7 °C -12.7 °C 34601.5 hPa SSE 15 km/h 15 km/h 32 % 0 mm
13:10 -2.9 °C -13.2 °C 34601.5 hPa South 15 km/h 15 km/h 31 % 0 mm
13:15 -2.8 °C -13.4 °C 34533.8 hPa WSW 17.9 km/h 17.9 km/h 30 % 0 mm
13:20 -2.8 °C -13.4 °C 34533.8 hPa SW 6 km/h 6 km/h 30 % 0 mm
13:25 -2.4 °C -13 °C 34533.8 hPa SSW 20.9 km/h 20.9 km/h 30 % 0 mm
13:30 -2.3 °C -13.3 °C 34533.8 hPa East 18.3 km/h 18.3 km/h 29 % 0 mm
13:35 -2.5 °C -13.4 °C 34533.8 hPa WSW 11.9 km/h 11.9 km/h 29 % 0 mm
13:40 -2.5 °C -13.7 °C 34533.8 hPa South 11.9 km/h 11.9 km/h 28 % 0 mm
13:45 -2.6 °C -13.4 °C 34533.8 hPa East 17.9 km/h 17.9 km/h 29 % 0 mm
13:50 -2.7 °C -13.6 °C 34533.8 hPa ENE 25.9 km/h 25.9 km/h 29 % 0 mm
13:55 -3.1 °C -14.2 °C 34533.8 hPa ESE 16.1 km/h 16.1 km/h 28 % 0 mm
14:00 -3.1 °C -14.2 °C 34533.8 hPa ENE 17.9 km/h 17.9 km/h 28 % 0 mm
14:05 -3.2 °C -13.8 °C 34533.8 hPa SSE 15 km/h 15 km/h 30 % 0 mm
14:10 -3.2 °C -13.8 °C 34533.8 hPa NE 26.9 km/h 26.9 km/h 30 % 0 mm
14:16 -3.2 °C -13.8 °C 34533.8 hPa ESE 23.8 km/h 23.8 km/h 30 % 0 mm
14:21 -3.2 °C -13.8 °C 34533.8 hPa ENE 16.1 km/h 16.1 km/h 30 % 0 mm
14:26 -3.2 °C -13.8 °C 34533.8 hPa ESE 20.9 km/h 20.9 km/h 30 % 0 mm
14:31 -3.5 °C -12.3 °C 34533.8 hPa East 26.9 km/h 26.9 km/h 37 % 0 mm
14:41 -3.5 °C -12.1 °C 34533.8 hPa East 29.8 km/h 29.8 km/h 38 % 0 mm
14:46 -3.5 °C -12.1 °C 34533.8 hPa East 29.8 km/h 29.8 km/h 38 % 0 mm
14:51 -3.5 °C -12.1 °C 34533.8 hPa SSE 26.9 km/h 26.9 km/h 38 % 0 mm
14:56 -3.5 °C -12.1 °C 34533.8 hPa ESE 23.8 km/h 23.8 km/h 38 % 0 mm
15:01 -3.5 °C -12.1 °C 34533.8 hPa SSE 15 km/h 15 km/h 38 % 0 mm
15:06 -3.5 °C -12.1 °C 34533.8 hPa ESE 23.8 km/h 23.8 km/h 38 % 0 mm
15:11 -3.5 °C -12.1 °C 34533.8 hPa East 20.9 km/h 20.9 km/h 38 % 0 mm
15:16 -3.5 °C -12.1 °C 34533.8 hPa NNE 23.8 km/h 23.8 km/h 38 % 0 mm
15:21 -2.9 °C -11.6 °C 34533.8 hPa East 15 km/h 15 km/h 38 % 0 mm
15:26 -2.7 °C -11.6 °C 34533.8 hPa WSW 23.8 km/h 23.8 km/h 37 % 0 mm
15:31 -2.7 °C -11.6 °C 34533.8 hPa SW 20.9 km/h 20.9 km/h 37 % 0 mm
15:36 -2.6 °C -11.5 °C 34533.8 hPa South 11.9 km/h 11.9 km/h 37 % 0 mm
15:41 -2.5 °C -11.4 °C 34533.8 hPa ESE 9 km/h 9 km/h 37 % 0 mm
15:46 -2.4 °C -11.3 °C 34533.8 hPa SSW 17.9 km/h 17.9 km/h 37 % 0 mm
15:51 -2.4 °C -11.3 °C 34533.8 hPa SSW 23.8 km/h 23.8 km/h 37 % 0 mm
15:56 -2.6 °C -11.2 °C 34533.8 hPa SSE 17.9 km/h 17.9 km/h 38 % 0 mm
16:01 -2.7 °C -11.3 °C 34533.8 hPa WSW 15 km/h 15.6 km/h 38 % 0 mm
16:06 -2.8 °C -11.4 °C 34533.8 hPa South 19.2 km/h 19.2 km/h 38 % 0 mm
16:11 -2.8 °C -11.2 °C 34533.8 hPa WSW 15 km/h 15 km/h 39 % 0 mm
16:16 -2.9 °C -11.3 °C 34533.8 hPa West 17.9 km/h 17.9 km/h 39 % 0 mm
16:21 -2.7 °C -11.3 °C 34533.8 hPa SSW 25.4 km/h 25.4 km/h 38 % 0 mm
16:26 -2.5 °C -10.9 °C 34533.8 hPa WSW 10.3 km/h 10.3 km/h 39 % 0 mm
16:31 -2.4 °C -11.1 °C 34533.8 hPa SW 15.6 km/h 15.6 km/h 38 % 0 mm
16:36 -2.4 °C -11.1 °C 34533.8 hPa SW 6 km/h 6 km/h 38 % 0 mm
16:41 -2.5 °C -11.2 °C 34533.8 hPa SW 16.1 km/h 16.1 km/h 38 % 0 mm
16:46 -2.6 °C -11.2 °C 34567.7 hPa NW 11.9 km/h 11.9 km/h 38 % 0 mm
16:51 -2.6 °C -11.2 °C 34567.7 hPa SW 9 km/h 9 km/h 38 % 0 mm
16:56 -2.7 °C -11.3 °C 34567.7 hPa East 23.8 km/h 23.8 km/h 38 % 0 mm
17:01 -2.6 °C -11.2 °C 34533.8 hPa West 23.8 km/h 23.8 km/h 38 % 0 mm
17:06 -2.6 °C -11.3 °C 34533.8 hPa WSW 17.9 km/h 17.9 km/h 38 % 0 mm
17:11 -2.6 °C -11.2 °C 34533.8 hPa SSW 11.9 km/h 11.9 km/h 38 % 0 mm
17:16 -2.4 °C -11.1 °C 34533.8 hPa East 9 km/h 9.3 km/h 38 % 0 mm
17:21 -2.4 °C -11.1 °C 34533.8 hPa ESE 9.3 km/h 9.3 km/h 38 % 0 mm
17:26 -2.6 °C -11.3 °C 34533.8 hPa WSW 15 km/h 15 km/h 38 % 0 mm
17:31 -2.7 °C -11.3 °C 34533.8 hPa WSW 15 km/h 15 km/h 38 % 0 mm
17:36 -2.6 °C -11.2 °C 34533.8 hPa WSW 20.9 km/h 20.9 km/h 38 % 0 mm
17:41 -2.8 °C -11.4 °C 34533.8 hPa SW 20.9 km/h 20.9 km/h 38 % 0 mm
17:46 -2.8 °C -11.4 °C 34533.8 hPa SW 29.8 km/h 29.8 km/h 38 % 0 mm
17:51 -2.8 °C -11.4 °C 34533.8 hPa WSW 17.9 km/h 17.9 km/h 38 % 0 mm
17:56 -2.8 °C -11.2 °C 34533.8 hPa SSW 17.9 km/h 17.9 km/h 39 % 0 mm
18:01 -2.9 °C -11.3 °C 34533.8 hPa WSW 15 km/h 15 km/h 39 % 0 mm
18:06 -2.9 °C -11.6 °C 34533.8 hPa SW 23.8 km/h 23.8 km/h 38 % 0 mm
18:11 -3 °C -11.6 °C 34533.8 hPa WSW 17.9 km/h 17.9 km/h 38 % 0 mm
18:16 -3.2 °C -11.8 °C 34533.8 hPa SW 11.9 km/h 11.9 km/h 38 % 0 mm
18:21 -3.5 °C -12.1 °C 34533.8 hPa SW 20.9 km/h 20.9 km/h 38 % 0 mm
18:26 -3.7 °C -12.2 °C 34533.8 hPa SSW 11.9 km/h 11.9 km/h 38 % 0 mm
18:31 -3.8 °C -12.3 °C 34533.8 hPa SW 15 km/h 15 km/h 38 % 0 mm
18:36 -3.8 °C -12.1 °C 34533.8 hPa SW 11.9 km/h 11.9 km/h 39 % 0 mm
18:41 -3.9 °C -12 °C 34533.8 hPa SSW 15 km/h 15 km/h 40 % 0 mm
18:46 -3.8 °C -12.1 °C 34533.8 hPa WNW 20.9 km/h 20.9 km/h 39 % 0 mm
18:51 -3.7 °C -11.8 °C 34533.8 hPa WSW 15 km/h 15 km/h 40 % 0 mm
18:56 -3.7 °C -11.8 °C 34533.8 hPa SSW 15.6 km/h 15.6 km/h 40 % 0 mm
19:01 -3.7 °C -11.8 °C 34533.8 hPa WSW 11.9 km/h 11.9 km/h 40 % 0 mm
19:06 -3.6 °C -11.7 °C 34533.8 hPa WSW 15.3 km/h 15.3 km/h 40 % 0 mm
19:11 -3.8 °C -11.9 °C 34533.8 hPa WSW 15.3 km/h 15.3 km/h 40 % 0 mm
19:16 -3.7 °C -11.8 °C 34533.8 hPa WSW 15.3 km/h 15.3 km/h 40 % 0 mm
19:20 -7.4 °C -12.6 °C 34601.5 hPa SW 2.6 km/h 7.7 km/h 55 % 0 mm
19:21 -3.8 °C -11.7 °C 34533.8 hPa WSW 15.3 km/h 15.3 km/h 41 % 0 mm
19:26 -3.9 °C -11.6 °C 34533.8 hPa WSW 15.3 km/h 15.3 km/h 42 % 0 mm
19:30 -7.4 °C -12.4 °C 34601.5 hPa NE 2.6 km/h 7.7 km/h 56 % 0 mm
19:31 -3.8 °C -11.7 °C 34533.8 hPa WSW 15.3 km/h 15.3 km/h 41 % 0 mm
19:36 -3.9 °C -11.8 °C 34533.8 hPa WSW 15.3 km/h 15.3 km/h 41 % 0 mm
19:40 -7.5 °C -12.3 °C 34601.5 hPa NNE 5.1 km/h 7.7 km/h 57 % 0 mm
19:41 -3.9 °C -11.8 °C 34533.8 hPa WSW 15.3 km/h 15.3 km/h 41 % 0 mm
19:46 -4.1 °C -11.8 °C 34496.6 hPa WSW 15.3 km/h 15.3 km/h 42 % 0 mm
19:50 -7.6 °C -12.4 °C 34635.4 hPa WSW 2.6 km/h 7.7 km/h 57 % 0 mm
19:51 -4.2 °C -11.7 °C 34496.6 hPa WSW 15.3 km/h 15.3 km/h 43 % 0 mm
19:56 -4.3 °C -11.7 °C 34496.6 hPa WSW 15.3 km/h 15.3 km/h 43 % 0 mm
20:00 -7.7 °C -12.4 °C 34635.4 hPa SW 5.1 km/h 7.7 km/h 57 % 0 mm
20:01 -4.4 °C -11.8 °C 34533.8 hPa WSW 15.3 km/h 15.3 km/h 43 % 0 mm
20:06 -4.4 °C -11.7 °C 34533.8 hPa WSW 15.3 km/h 15.3 km/h 44 % 0 mm
20:10 -7.7 °C -12.4 °C 34635.4 hPa WSW 5.1 km/h 5.1 km/h 58 % 0 mm
20:11 -4.6 °C -11.6 °C 34533.8 hPa WSW 15.3 km/h 15.3 km/h 45 % 0 mm
20:16 -4.6 °C -11.6 °C 34533.8 hPa WSW 15.3 km/h 15.3 km/h 45 % 0 mm
20:20 -7.7 °C -12.4 °C 34635.4 hPa WSW 5.1 km/h 5.1 km/h 58 % 0 mm
20:26 -4.8 °C -11.6 °C 34533.8 hPa WSW 15.3 km/h 15.3 km/h 46 % 0 mm
20:30 -7.7 °C -12.3 °C 34601.5 hPa SW 5.1 km/h 5.1 km/h 59 % 0 mm
20:31 -4.9 °C -11.6 °C 34533.8 hPa WSW 15.3 km/h 15.3 km/h 47 % 0 mm
20:36 -5 °C -11.6 °C 34533.8 hPa WSW 15.3 km/h 15.3 km/h 47 % 0 mm
20:40 -7.8 °C -12.3 °C 34601.5 hPa SW 5.1 km/h 5.1 km/h 59 % 0 mm
20:41 -5 °C -11.8 °C 34533.8 hPa WSW 15.3 km/h 15.3 km/h 46 % 0 mm
20:46 -5.1 °C -11.9 °C 34533.8 hPa WSW 15.3 km/h 15.3 km/h 46 % 0 mm
20:50 -7.8 °C -12.3 °C 34635.4 hPa SW 5.1 km/h 5.1 km/h 59 % 0 mm
20:51 -5.2 °C -12 °C 34533.8 hPa WSW 15.3 km/h 15.3 km/h 46 % 0 mm
20:56 -5.2 °C -12 °C 34533.8 hPa WSW 15.3 km/h 15.3 km/h 46 % 0 mm
21:00 -7.9 °C -12.4 °C 34635.4 hPa SW 5.1 km/h 5.1 km/h 59 % 0 mm
21:01 -5.2 °C -12 °C 34533.8 hPa WSW 15.3 km/h 15.3 km/h 46 % 0 mm
21:06 -5.2 °C -12 °C 34533.8 hPa WSW 15.3 km/h 15.3 km/h 46 % 0 mm
21:10 -8 °C -12.5 °C 34635.4 hPa SW 5.1 km/h 5.1 km/h 59 % 0 mm
21:11 -5.5 °C -12.3 °C 34533.8 hPa WSW 15.3 km/h 15.3 km/h 46 % 0 mm
21:17 -5.6 °C -12.3 °C 34533.8 hPa WSW 15.3 km/h 15.3 km/h 46 % 0 mm
21:20 -8 °C -12.4 °C 34601.5 hPa SW 5.1 km/h 5.1 km/h 60 % 0 mm
21:22 -5.7 °C -12.4 °C 34533.8 hPa WSW 15.3 km/h 15.3 km/h 46 % 0 mm
21:27 -5.8 °C -12.5 °C 34567.7 hPa WSW 15.3 km/h 15.3 km/h 46 % 0 mm
21:30 -8.1 °C -12.4 °C 34635.4 hPa Calm   2.6 km/h 60 % 0 mm
21:32 -5.8 °C -12.6 °C 34567.7 hPa WSW 15.3 km/h 15.3 km/h 46 % 0 mm
21:37 -5.9 °C -12.8 °C 34567.7 hPa WSW 15.3 km/h 15.3 km/h 45 % 0 mm
21:40 -8.1 °C -12.4 °C 34635.4 hPa Calm     60 % 0 mm
21:42 -6 °C -12.9 °C 34567.7 hPa WSW 15.3 km/h 15.3 km/h 45 % 0 mm
21:47 -6.1 °C -12.9 °C 34567.7 hPa WSW 15.3 km/h 15.3 km/h 45 % 0 mm
21:50 -8.1 °C -12.4 °C 34635.4 hPa Calm     60 % 0 mm
21:52 -6.1 °C -13 °C 34567.7 hPa WSW 15.3 km/h 15.3 km/h 45 % 0 mm
21:57 -6.2 °C -12.9 °C 34567.7 hPa WSW 15.3 km/h 15.3 km/h 46 % 0 mm
22:00 -8.2 °C -12.4 °C 34601.5 hPa Calm   2.6 km/h 61 % 0 mm
22:02 -6.3 °C -12.9 °C 34567.7 hPa WSW 15.3 km/h 15.3 km/h 46 % 0 mm
22:07 -6.3 °C -13 °C 34567.7 hPa SSW 9 km/h 9 km/h 46 % 0 mm
22:10 -8.3 °C -12.5 °C 34601.5 hPa ENE 2.6 km/h 2.6 km/h 61 % 0 mm
22:12 -6.4 °C -13.1 °C 34567.7 hPa SW 7.6 km/h 9.3 km/h 46 % 0 mm
22:17 -6.4 °C -13.1 °C 34567.7 hPa SW 7.6 km/h 9.3 km/h 46 % 0 mm
22:20 -8.3 °C -12.6 °C 34601.5 hPa NE 2.6 km/h   61 % 0 mm
22:22 -6.4 °C -13.1 °C 34567.7 hPa SW 7.6 km/h 9.3 km/h 46 % 0 mm
22:27 -6.5 °C -13 °C 34601.5 hPa SW 7.6 km/h 9.3 km/h 47 % 0 mm
22:30 -8.3 °C -12.6 °C 34601.5 hPa Calm     61 % 0 mm
22:32 -6.6 °C -13.1 °C 34601.5 hPa SW 7.6 km/h 9.3 km/h 47 % 0 mm
22:37 -6.6 °C -13.1 °C 34601.5 hPa SW 7.6 km/h 9.3 km/h 47 % 0 mm
22:40 -8.4 °C -12.5 °C 34601.5 hPa Calm     62 % 0 mm
22:42 -6.6 °C -13.1 °C 34601.5 hPa SW 7.6 km/h 9.3 km/h 47 % 0 mm
22:47 -6.7 °C -13.2 °C 34601.5 hPa SW 7.6 km/h 9.3 km/h 47 % 0 mm
22:50 -8.6 °C -12.7 °C 34601.5 hPa Calm     62 % 0 mm
22:52 -6.7 °C -13 °C 34601.5 hPa SW 9 km/h 9 km/h 48 % 0 mm
22:57 -6.8 °C -13.1 °C 34601.5 hPa SW 9 km/h 9 km/h 48 % 0 mm
23:00 -8.7 °C -12.6 °C 34601.5 hPa Calm     63 % 0 mm
23:02 -6.8 °C -13.1 °C 34601.5 hPa SW 9 km/h 9 km/h 48 % 0 mm
23:07 -6.8 °C -13.1 °C 34601.5 hPa SW 9 km/h 9 km/h 48 % 0 mm
23:10 -8.6 °C -12.5 °C 34601.5 hPa Calm     63 % 0 mm
23:12 -6.8 °C -13.1 °C 34601.5 hPa SW 9 km/h 9 km/h 48 % 0 mm
23:17 -6.9 °C -13 °C 34601.5 hPa SW 9 km/h 9 km/h 49 % 0 mm
23:20 -8.8 °C -12.7 °C 34601.5 hPa NE 2.6 km/h 2.6 km/h 63 % 0 mm
23:22 -6.9 °C -13 °C 34601.5 hPa SW 9 km/h 9 km/h 49 % 0 mm
23:27 -7 °C -13.1 °C 34567.7 hPa SW 9 km/h 9 km/h 49 % 0 mm
23:30 -8.9 °C -12.8 °C 34601.5 hPa WNW 2.6 km/h   63 % 0 mm
23:32 -7 °C -13.1 °C 34567.7 hPa SW 9 km/h 9 km/h 49 % 0 mm
23:37 -7 °C -13.1 °C 34567.7 hPa SW 9 km/h 9 km/h 49 % 0 mm
23:42 -7.1 °C -13.1 °C 34601.5 hPa SW 9 km/h 9 km/h 50 % 0 mm
23:47 -7.2 °C -12.9 °C 34601.5 hPa SW 9 km/h 9 km/h 51 % 0 mm
23:50 -9.1 °C -13 °C 34601.5 hPa West 2.6 km/h   63 % 0 mm
23:52 -7.2 °C -12.9 °C 34601.5 hPa SW 9 km/h 9 km/h 51 % 0 mm
23:57 -7.2 °C -12.8 °C 34601.5 hPa SW 9 km/h 9 km/h 52 % 0 mm
Meteo Sesrovires
Elogis d' Weather Underground - 2 mb

Guio original per  Jim McMurry - jmcmurry@mwt.net Adaptat per a la plantilla per  Wim van der Kuil - Leuven-Template.eu

Trobareu la nostra informacio del temps tambe a:

Weather Underground

AWEKAS